sensor_id;sensor_type;location;lat;lon;timestamp;P1;durP1;ratioP1;P2;durP2;ratioP2
5752;SDS011;2901;42.140;24.760;2023-01-16T00:00:40;17.23;;;11.97;;
5752;SDS011;2901;42.140;24.760;2023-01-16T00:03:05;18.67;;;13.73;;
5752;SDS011;2901;42.140;24.760;2023-01-16T00:05:31;17.47;;;12.93;;
5752;SDS011;2901;42.140;24.760;2023-01-16T00:07:56;19.00;;;13.03;;
5752;SDS011;2901;42.140;24.760;2023-01-16T00:10:22;19.50;;;14.27;;
5752;SDS011;2901;42.140;24.760;2023-01-16T00:12:47;16.43;;;12.37;;
5752;SDS011;2901;42.140;24.760;2023-01-16T00:15:13;21.47;;;12.97;;
5752;SDS011;2901;42.140;24.760;2023-01-16T00:17:39;23.00;;;13.20;;
5752;SDS011;2901;42.140;24.760;2023-01-16T00:20:04;17.60;;;12.80;;
5752;SDS011;2901;42.140;24.760;2023-01-16T00:22:30;18.13;;;13.37;;
5752;SDS011;2901;42.140;24.760;2023-01-16T00:24:55;16.43;;;12.83;;
5752;SDS011;2901;42.140;24.760;2023-01-16T00:27:21;17.57;;;13.37;;
5752;SDS011;2901;42.140;24.760;2023-01-16T00:29:46;19.07;;;13.40;;
5752;SDS011;2901;42.140;24.760;2023-01-16T00:32:12;19.97;;;13.53;;
5752;SDS011;2901;42.140;24.760;2023-01-16T00:34:38;24.80;;;13.53;;
5752;SDS011;2901;42.140;24.760;2023-01-16T00:37:03;21.87;;;14.77;;
5752;SDS011;2901;42.140;24.760;2023-01-16T00:39:29;22.17;;;14.37;;
5752;SDS011;2901;42.140;24.760;2023-01-16T00:41:54;25.83;;;15.57;;
5752;SDS011;2901;42.140;24.760;2023-01-16T00:44:20;24.80;;;16.53;;
5752;SDS011;2901;42.140;24.760;2023-01-16T00:46:45;23.63;;;14.50;;
5752;SDS011;2901;42.140;24.760;2023-01-16T00:49:10;26.47;;;16.50;;
5752;SDS011;2901;42.140;24.760;2023-01-16T00:51:36;25.10;;;15.63;;
5752;SDS011;2901;42.140;24.760;2023-01-16T00:54:01;24.53;;;17.33;;
5752;SDS011;2901;42.140;24.760;2023-01-16T00:56:26;26.57;;;17.47;;
5752;SDS011;2901;42.140;24.760;2023-01-16T00:58:52;27.40;;;17.30;;
5752;SDS011;2901;42.140;24.760;2023-01-16T01:01:18;25.77;;;16.90;;
5752;SDS011;2901;42.140;24.760;2023-01-16T01:03:43;24.93;;;16.67;;
5752;SDS011;2901;42.140;24.760;2023-01-16T01:06:09;26.17;;;16.97;;
5752;SDS011;2901;42.140;24.760;2023-01-16T01:08:36;25.83;;;16.40;;
5752;SDS011;2901;42.140;24.760;2023-01-16T01:11:09;27.13;;;17.53;;
5752;SDS011;2901;42.140;24.760;2023-01-16T01:13:36;22.80;;;16.77;;
5752;SDS011;2901;42.140;24.760;2023-01-16T01:16:02;27.60;;;16.60;;
5752;SDS011;2901;42.140;24.760;2023-01-16T01:18:28;31.33;;;17.87;;
5752;SDS011;2901;42.140;24.760;2023-01-16T01:20:53;33.93;;;18.70;;
5752;SDS011;2901;42.140;24.760;2023-01-16T01:23:19;25.20;;;18.97;;
5752;SDS011;2901;42.140;24.760;2023-01-16T01:25:44;33.03;;;18.93;;
5752;SDS011;2901;42.140;24.760;2023-01-16T01:28:10;26.70;;;18.70;;
5752;SDS011;2901;42.140;24.760;2023-01-16T01:30:35;25.83;;;18.83;;
5752;SDS011;2901;42.140;24.760;2023-01-16T01:33:02;27.03;;;18.40;;
5752;SDS011;2901;42.140;24.760;2023-01-16T01:35:27;25.63;;;18.40;;
5752;SDS011;2901;42.140;24.760;2023-01-16T01:37:53;30.40;;;18.60;;
5752;SDS011;2901;42.140;24.760;2023-01-16T01:40:18;26.83;;;18.20;;
5752;SDS011;2901;42.140;24.760;2023-01-16T01:42:43;24.70;;;18.00;;
5752;SDS011;2901;42.140;24.760;2023-01-16T01:45:19;34.33;;;19.43;;
5752;SDS011;2901;42.140;24.760;2023-01-16T01:47:55;35.40;;;20.90;;
5752;SDS011;2901;42.140;24.760;2023-01-16T01:50:53;34.10;;;19.03;;
5752;SDS011;2901;42.140;24.760;2023-01-16T01:53:37;35.70;;;19.80;;
5752;SDS011;2901;42.140;24.760;2023-01-16T01:56:16;34.70;;;20.90;;
5752;SDS011;2901;42.140;24.760;2023-01-16T01:58:43;37.63;;;19.90;;
5752;SDS011;2901;42.140;24.760;2023-01-16T02:01:13;28.60;;;19.53;;
5752;SDS011;2901;42.140;24.760;2023-01-16T02:06:07;35.47;;;20.70;;
5752;SDS011;2901;42.140;24.760;2023-01-16T02:08:39;28.43;;;19.80;;
5752;SDS011;2901;42.140;24.760;2023-01-16T02:11:11;30.60;;;21.27;;
5752;SDS011;2901;42.140;24.760;2023-01-16T02:13:54;37.97;;;21.03;;
5752;SDS011;2901;42.140;24.760;2023-01-16T02:16:23;30.73;;;19.70;;
5752;SDS011;2901;42.140;24.760;2023-01-16T02:19:14;35.53;;;21.43;;
5752;SDS011;2901;42.140;24.760;2023-01-16T02:22:14;33.23;;;20.17;;
5752;SDS011;2901;42.140;24.760;2023-01-16T02:39:40;29.87;;;18.00;;
5752;SDS011;2901;42.140;24.760;2023-01-16T02:42:24;32.07;;;17.73;;
5752;SDS011;2901;42.140;24.760;2023-01-16T02:45:10;23.17;;;16.03;;
5752;SDS011;2901;42.140;24.760;2023-01-16T02:50:29;25.40;;;16.80;;
5752;SDS011;2901;42.140;24.760;2023-01-16T02:55:53;26.87;;;17.10;;
5752;SDS011;2901;42.140;24.760;2023-01-16T02:58:19;26.17;;;16.80;;
5752;SDS011;2901;42.140;24.760;2023-01-16T03:00:50;24.33;;;17.07;;
5752;SDS011;2901;42.140;24.760;2023-01-16T03:06:27;33.03;;;17.57;;
5752;SDS011;2901;42.140;24.760;2023-01-16T03:11:57;29.20;;;17.40;;
5752;SDS011;2901;42.140;24.760;2023-01-16T03:14:48;29.30;;;18.47;;
5752;SDS011;2901;42.140;24.760;2023-01-16T03:22:58;25.57;;;17.13;;
5752;SDS011;2901;42.140;24.760;2023-01-16T03:25:31;29.23;;;17.47;;
5752;SDS011;2901;42.140;24.760;2023-01-16T03:30:49;33.07;;;19.03;;
5752;SDS011;2901;42.140;24.760;2023-01-16T03:33:22;31.23;;;19.83;;
5752;SDS011;2901;42.140;24.760;2023-01-16T03:35:53;35.30;;;20.57;;
5752;SDS011;2901;42.140;24.760;2023-01-16T03:38:22;34.10;;;20.27;;
5752;SDS011;2901;42.140;24.760;2023-01-16T03:40:49;37.67;;;20.70;;
5752;SDS011;2901;42.140;24.760;2023-01-16T03:43:18;36.53;;;20.53;;
5752;SDS011;2901;42.140;24.760;2023-01-16T03:45:59;32.10;;;19.23;;
5752;SDS011;2901;42.140;24.760;2023-01-16T03:51:02;35.40;;;20.40;;
5752;SDS011;2901;42.140;24.760;2023-01-16T03:53:38;33.60;;;18.77;;
5752;SDS011;2901;42.140;24.760;2023-01-16T03:56:20;40.90;;;19.57;;
5752;SDS011;2901;42.140;24.760;2023-01-16T03:58:51;34.30;;;19.23;;
5752;SDS011;2901;42.140;24.760;2023-01-16T04:04:10;29.53;;;18.87;;
5752;SDS011;2901;42.140;24.760;2023-01-16T04:12:12;37.30;;;20.07;;
5752;SDS011;2901;42.140;24.760;2023-01-16T04:14:43;36.97;;;21.27;;
5752;SDS011;2901;42.140;24.760;2023-01-16T04:17:10;34.87;;;20.53;;
5752;SDS011;2901;42.140;24.760;2023-01-16T04:19:36;34.10;;;20.07;;
5752;SDS011;2901;42.140;24.760;2023-01-16T04:22:07;33.83;;;20.77;;
5752;SDS011;2901;42.140;24.760;2023-01-16T04:24:43;33.97;;;19.93;;
5752;SDS011;2901;42.140;24.760;2023-01-16T04:27:09;33.00;;;19.73;;
5752;SDS011;2901;42.140;24.760;2023-01-16T04:29:34;34.90;;;20.20;;
5752;SDS011;2901;42.140;24.760;2023-01-16T04:31:59;39.83;;;21.50;;
5752;SDS011;2901;42.140;24.760;2023-01-16T04:34:25;35.23;;;20.40;;
5752;SDS011;2901;42.140;24.760;2023-01-16T04:36:50;35.30;;;20.60;;
5752;SDS011;2901;42.140;24.760;2023-01-16T04:39:15;36.23;;;19.37;;
5752;SDS011;2901;42.140;24.760;2023-01-16T04:41:41;32.83;;;20.90;;
5752;SDS011;2901;42.140;24.760;2023-01-16T04:44:07;34.43;;;20.83;;
5752;SDS011;2901;42.140;24.760;2023-01-16T04:46:34;34.53;;;20.43;;
5752;SDS011;2901;42.140;24.760;2023-01-16T04:49:00;36.50;;;20.90;;
5752;SDS011;2901;42.140;24.760;2023-01-16T04:51:25;33.47;;;20.40;;
5752;SDS011;2901;42.140;24.760;2023-01-16T04:53:51;35.23;;;22.80;;
5752;SDS011;2901;42.140;24.760;2023-01-16T04:56:16;33.70;;;20.53;;
5752;SDS011;2901;42.140;24.760;2023-01-16T04:58:42;39.47;;;20.53;;
5752;SDS011;2901;42.140;24.760;2023-01-16T05:01:07;41.93;;;21.73;;
5752;SDS011;2901;42.140;24.760;2023-01-16T05:03:33;38.30;;;20.70;;
5752;SDS011;2901;42.140;24.760;2023-01-16T05:05:58;30.73;;;19.23;;
5752;SDS011;2901;42.140;24.760;2023-01-16T05:08:23;39.60;;;21.33;;
5752;SDS011;2901;42.140;24.760;2023-01-16T05:10:52;36.97;;;20.83;;
5752;SDS011;2901;42.140;24.760;2023-01-16T05:13:18;35.53;;;20.30;;
5752;SDS011;2901;42.140;24.760;2023-01-16T05:15:44;34.70;;;20.37;;
5752;SDS011;2901;42.140;24.760;2023-01-16T05:18:10;34.27;;;20.13;;
5752;SDS011;2901;42.140;24.760;2023-01-16T05:20:39;23.17;;;17.43;;
5752;SDS011;2901;42.140;24.760;2023-01-16T05:23:05;28.20;;;18.63;;
5752;SDS011;2901;42.140;24.760;2023-01-16T05:25:31;34.70;;;18.97;;
5752;SDS011;2901;42.140;24.760;2023-01-16T05:27:56;36.20;;;18.37;;
5752;SDS011;2901;42.140;24.760;2023-01-16T05:30:22;29.77;;;19.10;;
5752;SDS011;2901;42.140;24.760;2023-01-16T05:32:47;45.42;;;21.13;;
5752;SDS011;2901;42.140;24.760;2023-01-16T05:35:13;30.20;;;18.80;;
5752;SDS011;2901;42.140;24.760;2023-01-16T05:37:39;33.37;;;19.73;;
5752;SDS011;2901;42.140;24.760;2023-01-16T05:40:04;40.50;;;21.10;;
5752;SDS011;2901;42.140;24.760;2023-01-16T05:42:30;34.93;;;20.33;;
5752;SDS011;2901;42.140;24.760;2023-01-16T05:44:55;40.30;;;19.57;;
5752;SDS011;2901;42.140;24.760;2023-01-16T05:47:21;42.13;;;20.17;;
5752;SDS011;2901;42.140;24.760;2023-01-16T05:49:46;37.53;;;20.77;;
5752;SDS011;2901;42.140;24.760;2023-01-16T05:52:12;35.47;;;20.77;;
5752;SDS011;2901;42.140;24.760;2023-01-16T05:54:38;35.67;;;20.47;;
5752;SDS011;2901;42.140;24.760;2023-01-16T05:57:03;44.43;;;20.90;;
5752;SDS011;2901;42.140;24.760;2023-01-16T05:59:29;33.93;;;21.33;;
5752;SDS011;2901;42.140;24.760;2023-01-16T06:01:54;35.80;;;21.03;;
5752;SDS011;2901;42.140;24.760;2023-01-16T06:04:21;32.77;;;19.53;;
5752;SDS011;2901;42.140;24.760;2023-01-16T06:06:47;47.70;;;22.30;;
5752;SDS011;2901;42.140;24.760;2023-01-16T06:09:13;41.70;;;20.90;;
5752;SDS011;2901;42.140;24.760;2023-01-16T06:11:38;40.93;;;20.67;;
5752;SDS011;2901;42.140;24.760;2023-01-16T06:14:04;30.23;;;20.70;;
5752;SDS011;2901;42.140;24.760;2023-01-16T06:16:32;38.93;;;20.07;;
5752;SDS011;2901;42.140;24.760;2023-01-16T06:18:59;36.17;;;20.17;;
5752;SDS011;2901;42.140;24.760;2023-01-16T06:21:25;33.10;;;21.50;;
5752;SDS011;2901;42.140;24.760;2023-01-16T06:23:50;35.23;;;21.67;;
5752;SDS011;2901;42.140;24.760;2023-01-16T06:26:16;31.63;;;20.63;;
5752;SDS011;2901;42.140;24.760;2023-01-16T06:28:42;36.00;;;20.50;;
5752;SDS011;2901;42.140;24.760;2023-01-16T06:31:07;31.30;;;19.73;;
5752;SDS011;2901;42.140;24.760;2023-01-16T06:33:33;37.70;;;21.00;;
5752;SDS011;2901;42.140;24.760;2023-01-16T06:35:59;41.20;;;23.47;;
5752;SDS011;2901;42.140;24.760;2023-01-16T06:38:25;30.07;;;19.17;;
5752;SDS011;2901;42.140;24.760;2023-01-16T06:40:50;41.70;;;20.67;;
5752;SDS011;2901;42.140;24.760;2023-01-16T06:43:21;28.67;;;16.00;;
5752;SDS011;2901;42.140;24.760;2023-01-16T06:45:49;30.83;;;18.27;;
5752;SDS011;2901;42.140;24.760;2023-01-16T06:48:15;38.33;;;19.33;;
5752;SDS011;2901;42.140;24.760;2023-01-16T06:50:40;26.23;;;17.13;;
5752;SDS011;2901;42.140;24.760;2023-01-16T06:53:06;31.13;;;19.77;;
5752;SDS011;2901;42.140;24.760;2023-01-16T06:55:31;29.93;;;17.93;;
5752;SDS011;2901;42.140;24.760;2023-01-16T06:57:57;39.43;;;20.30;;
5752;SDS011;2901;42.140;24.760;2023-01-16T07:00:22;25.53;;;17.47;;
5752;SDS011;2901;42.140;24.760;2023-01-16T07:02:51;26.20;;;15.20;;
5752;SDS011;2901;42.140;24.760;2023-01-16T07:05:20;26.83;;;15.57;;
5752;SDS011;2901;42.140;24.760;2023-01-16T07:07:46;16.20;;;14.47;;
5752;SDS011;2901;42.140;24.760;2023-01-16T07:10:12;22.33;;;15.37;;
5752;SDS011;2901;42.140;24.760;2023-01-16T07:12:38;29.43;;;17.67;;
5752;SDS011;2901;42.140;24.760;2023-01-16T07:15:04;30.07;;;18.90;;
5752;SDS011;2901;42.140;24.760;2023-01-16T07:17:49;28.43;;;19.60;;
5752;SDS011;2901;42.140;24.760;2023-01-16T07:20:33;25.83;;;18.23;;
5752;SDS011;2901;42.140;24.760;2023-01-16T07:23:27;32.63;;;17.90;;
5752;SDS011;2901;42.140;24.760;2023-01-16T07:25:56;29.67;;;18.40;;
5752;SDS011;2901;42.140;24.760;2023-01-16T07:28:26;34.22;;;18.27;;
5752;SDS011;2901;42.140;24.760;2023-01-16T07:30:53;36.37;;;17.73;;
5752;SDS011;2901;42.140;24.760;2023-01-16T07:33:20;38.13;;;20.83;;
5752;SDS011;2901;42.140;24.760;2023-01-16T07:35:45;27.20;;;17.37;;
5752;SDS011;2901;42.140;24.760;2023-01-16T07:38:11;35.63;;;17.57;;
5752;SDS011;2901;42.140;24.760;2023-01-16T07:40:37;28.53;;;17.27;;
5752;SDS011;2901;42.140;24.760;2023-01-16T07:43:02;33.57;;;18.93;;
5752;SDS011;2901;42.140;24.760;2023-01-16T07:45:27;28.20;;;18.43;;
5752;SDS011;2901;42.140;24.760;2023-01-16T07:47:53;33.67;;;19.23;;
5752;SDS011;2901;42.140;24.760;2023-01-16T07:50:18;32.13;;;17.80;;
5752;SDS011;2901;42.140;24.760;2023-01-16T07:52:44;55.95;;;22.48;;
5752;SDS011;2901;42.140;24.760;2023-01-16T07:55:11;27.33;;;18.37;;
5752;SDS011;2901;42.140;24.760;2023-01-16T07:57:37;35.53;;;19.52;;
5752;SDS011;2901;42.140;24.760;2023-01-16T08:00:06;32.90;;;20.10;;
5752;SDS011;2901;42.140;24.760;2023-01-16T08:02:34;36.08;;;20.30;;
5752;SDS011;2901;42.140;24.760;2023-01-16T08:05:00;38.67;;;21.17;;
5752;SDS011;2901;42.140;24.760;2023-01-16T08:07:25;40.72;;;21.33;;
5752;SDS011;2901;42.140;24.760;2023-01-16T08:09:51;46.97;;;21.02;;
5752;SDS011;2901;42.140;24.760;2023-01-16T08:12:16;44.22;;;19.90;;
5752;SDS011;2901;42.140;24.760;2023-01-16T08:14:41;28.75;;;19.20;;
5752;SDS011;2901;42.140;24.760;2023-01-16T08:17:07;28.77;;;18.50;;
5752;SDS011;2901;42.140;24.760;2023-01-16T08:19:32;28.63;;;18.73;;
5752;SDS011;2901;42.140;24.760;2023-01-16T08:21:58;26.67;;;16.55;;
5752;SDS011;2901;42.140;24.760;2023-01-16T08:24:23;27.90;;;16.38;;
5752;SDS011;2901;42.140;24.760;2023-01-16T08:26:50;31.05;;;17.25;;
5752;SDS011;2901;42.140;24.760;2023-01-16T08:29:16;36.60;;;16.70;;
5752;SDS011;2901;42.140;24.760;2023-01-16T08:31:42;27.13;;;16.17;;
5752;SDS011;2901;42.140;24.760;2023-01-16T08:34:07;28.23;;;15.45;;
5752;SDS011;2901;42.140;24.760;2023-01-16T08:36:32;28.17;;;15.68;;
5752;SDS011;2901;42.140;24.760;2023-01-16T08:38:58;30.15;;;17.55;;
5752;SDS011;2901;42.140;24.760;2023-01-16T08:41:23;40.63;;;20.83;;
5752;SDS011;2901;42.140;24.760;2023-01-16T08:44:07;42.35;;;18.67;;
5752;SDS011;2901;42.140;24.760;2023-01-16T08:47:02;31.13;;;19.58;;
5752;SDS011;2901;42.140;24.760;2023-01-16T08:49:48;24.33;;;16.73;;
5752;SDS011;2901;42.140;24.760;2023-01-16T08:52:33;28.60;;;17.23;;
5752;SDS011;2901;42.140;24.760;2023-01-16T08:55:01;32.10;;;17.73;;
5752;SDS011;2901;42.140;24.760;2023-01-16T08:57:26;28.95;;;17.77;;
5752;SDS011;2901;42.140;24.760;2023-01-16T08:59:53;26.75;;;16.80;;
5752;SDS011;2901;42.140;24.760;2023-01-16T09:02:19;24.98;;;15.90;;
5752;SDS011;2901;42.140;24.760;2023-01-16T09:04:45;34.83;;;17.85;;
5752;SDS011;2901;42.140;24.760;2023-01-16T09:07:12;35.10;;;17.98;;
5752;SDS011;2901;42.140;24.760;2023-01-16T09:09:38;35.10;;;17.67;;
5752;SDS011;2901;42.140;24.760;2023-01-16T09:12:05;31.30;;;18.60;;
5752;SDS011;2901;42.140;24.760;2023-01-16T09:14:51;35.70;;;19.10;;
5752;SDS011;2901;42.140;24.760;2023-01-16T09:17:16;37.10;;;19.20;;
5752;SDS011;2901;42.140;24.760;2023-01-16T09:19:42;30.65;;;18.40;;
5752;SDS011;2901;42.140;24.760;2023-01-16T09:22:07;30.88;;;18.17;;
5752;SDS011;2901;42.140;24.760;2023-01-16T09:24:33;25.60;;;16.80;;
5752;SDS011;2901;42.140;24.760;2023-01-16T09:27:00;18.23;;;13.63;;
5752;SDS011;2901;42.140;24.760;2023-01-16T09:29:26;26.00;;;15.90;;
5752;SDS011;2901;42.140;24.760;2023-01-16T09:31:52;28.07;;;15.97;;
5752;SDS011;2901;42.140;24.760;2023-01-16T09:34:17;33.13;;;16.60;;
5752;SDS011;2901;42.140;24.760;2023-01-16T09:36:42;30.20;;;16.38;;
5752;SDS011;2901;42.140;24.760;2023-01-16T09:39:08;31.95;;;18.17;;
5752;SDS011;2901;42.140;24.760;2023-01-16T09:41:35;26.05;;;17.23;;
5752;SDS011;2901;42.140;24.760;2023-01-16T09:44:26;31.70;;;20.17;;
5752;SDS011;2901;42.140;24.760;2023-01-16T09:46:51;42.28;;;19.23;;
5752;SDS011;2901;42.140;24.760;2023-01-16T09:49:23;27.08;;;17.70;;
5752;SDS011;2901;42.140;24.760;2023-01-16T09:52:12;29.40;;;17.42;;
5752;SDS011;2901;42.140;24.760;2023-01-16T09:55:04;28.25;;;18.38;;
5752;SDS011;2901;42.140;24.760;2023-01-16T09:57:57;37.47;;;20.83;;
5752;SDS011;2901;42.140;24.760;2023-01-16T10:00:42;34.80;;;21.07;;
5752;SDS011;2901;42.140;24.760;2023-01-16T10:03:08;30.80;;;19.77;;
5752;SDS011;2901;42.140;24.760;2023-01-16T10:05:49;22.00;;;15.27;;
5752;SDS011;2901;42.140;24.760;2023-01-16T10:08:42;24.70;;;17.10;;
5752;SDS011;2901;42.140;24.760;2023-01-16T10:11:27;29.42;;;19.20;;
5752;SDS011;2901;42.140;24.760;2023-01-16T10:17:05;23.80;;;17.08;;
5752;SDS011;2901;42.140;24.760;2023-01-16T10:22:35;40.92;;;19.83;;
5752;SDS011;2901;42.140;24.760;2023-01-16T10:25:14;31.60;;;16.90;;
5752;SDS011;2901;42.140;24.760;2023-01-16T10:30:48;25.63;;;17.60;;
5752;SDS011;2901;42.140;24.760;2023-01-16T10:33:24;27.85;;;19.73;;
5752;SDS011;2901;42.140;24.760;2023-01-16T10:36:04;29.98;;;19.33;;
5752;SDS011;2901;42.140;24.760;2023-01-16T10:38:44;25.60;;;18.83;;
5752;SDS011;2901;42.140;24.760;2023-01-16T10:44:26;24.88;;;16.35;;
5752;SDS011;2901;42.140;24.760;2023-01-16T10:47:20;23.10;;;15.07;;
5752;SDS011;2901;42.140;24.760;2023-01-16T10:50:06;32.15;;;16.48;;
5752;SDS011;2901;42.140;24.760;2023-01-16T10:52:32;17.65;;;14.23;;
5752;SDS011;2901;42.140;24.760;2023-01-16T10:54:59;29.80;;;15.80;;
5752;SDS011;2901;42.140;24.760;2023-01-16T10:57:25;23.38;;;17.08;;
5752;SDS011;2901;42.140;24.760;2023-01-16T10:59:53;25.45;;;16.20;;
5752;SDS011;2901;42.140;24.760;2023-01-16T11:02:32;24.45;;;17.13;;
5752;SDS011;2901;42.140;24.760;2023-01-16T11:04:59;27.77;;;17.60;;
5752;SDS011;2901;42.140;24.760;2023-01-16T11:07:27;28.73;;;17.92;;
5752;SDS011;2901;42.140;24.760;2023-01-16T11:09:54;38.63;;;18.30;;
5752;SDS011;2901;42.140;24.760;2023-01-16T11:12:25;23.42;;;17.45;;
5752;SDS011;2901;42.140;24.760;2023-01-16T11:15:16;30.30;;;17.90;;
5752;SDS011;2901;42.140;24.760;2023-01-16T11:18:01;27.63;;;18.55;;
5752;SDS011;2901;42.140;24.760;2023-01-16T11:20:45;34.28;;;20.17;;
5752;SDS011;2901;42.140;24.760;2023-01-16T11:25:36;33.22;;;18.40;;
5752;SDS011;2901;42.140;24.760;2023-01-16T11:28:03;31.90;;;19.75;;
5752;SDS011;2901;42.140;24.760;2023-01-16T11:30:38;26.10;;;18.67;;
5752;SDS011;2901;42.140;24.760;2023-01-16T11:33:15;26.50;;;19.00;;
5752;SDS011;2901;42.140;24.760;2023-01-16T11:35:46;27.50;;;18.43;;
5752;SDS011;2901;42.140;24.760;2023-01-16T11:38:18;32.55;;;18.73;;
5752;SDS011;2901;42.140;24.760;2023-01-16T11:40:45;26.70;;;19.00;;
5752;SDS011;2901;42.140;24.760;2023-01-16T11:43:13;34.57;;;21.07;;
5752;SDS011;2901;42.140;24.760;2023-01-16T11:46:06;42.85;;;22.67;;
5752;SDS011;2901;42.140;24.760;2023-01-16T11:48:49;39.50;;;22.00;;
5752;SDS011;2901;42.140;24.760;2023-01-16T11:51:19;46.37;;;23.73;;
5752;SDS011;2901;42.140;24.760;2023-01-16T11:53:48;39.55;;;22.85;;
5752;SDS011;2901;42.140;24.760;2023-01-16T12:10:42;38.90;;;22.70;;
5752;SDS011;2901;42.140;24.760;2023-01-16T12:13:13;32.97;;;20.63;;
5752;SDS011;2901;42.140;24.760;2023-01-16T12:21:13;33.22;;;18.40;;
5752;SDS011;2901;42.140;24.760;2023-01-16T12:32:52;29.73;;;18.92;;
5752;SDS011;2901;42.140;24.760;2023-01-16T12:41:39;29.92;;;18.02;;
5752;SDS011;2901;42.140;24.760;2023-01-16T12:44:39;26.42;;;19.20;;
5752;SDS011;2901;42.140;24.760;2023-01-16T12:47:31;30.73;;;19.55;;
5752;SDS011;2901;42.140;24.760;2023-01-16T12:52:41;34.17;;;20.52;;
5752;SDS011;2901;42.140;24.760;2023-01-16T12:57:46;32.53;;;21.75;;
5752;SDS011;2901;42.140;24.760;2023-01-16T13:00:34;32.20;;;19.85;;
5752;SDS011;2901;42.140;24.760;2023-01-16T13:05:48;33.97;;;21.13;;
5752;SDS011;2901;42.140;24.760;2023-01-16T13:08:22;40.77;;;21.77;;
5752;SDS011;2901;42.140;24.760;2023-01-16T13:10:58;42.40;;;22.45;;
5752;SDS011;2901;42.140;24.760;2023-01-16T13:14:02;46.38;;;24.70;;
5752;SDS011;2901;42.140;24.760;2023-01-16T13:16:32;43.00;;;23.42;;
5752;SDS011;2901;42.140;24.760;2023-01-16T13:19:17;39.17;;;22.63;;
5752;SDS011;2901;42.140;24.760;2023-01-16T13:21:54;36.65;;;21.33;;
5752;SDS011;2901;42.140;24.760;2023-01-16T13:24:30;40.67;;;21.77;;
5752;SDS011;2901;42.140;24.760;2023-01-16T13:27:00;40.75;;;23.08;;
5752;SDS011;2901;42.140;24.760;2023-01-16T13:29:39;40.03;;;22.43;;
5752;SDS011;2901;42.140;24.760;2023-01-16T13:32:28;48.42;;;23.83;;
5752;SDS011;2901;42.140;24.760;2023-01-16T13:35:06;36.83;;;21.55;;
5752;SDS011;2901;42.140;24.760;2023-01-16T13:43:06;51.13;;;24.30;;
5752;SDS011;2901;42.140;24.760;2023-01-16T13:45:55;36.92;;;22.35;;
5752;SDS011;2901;42.140;24.760;2023-01-16T13:48:31;47.45;;;25.30;;
5752;SDS011;2901;42.140;24.760;2023-01-16T13:51:16;46.00;;;23.33;;
5752;SDS011;2901;42.140;24.760;2023-01-16T13:53:46;49.33;;;23.20;;
5752;SDS011;2901;42.140;24.760;2023-01-16T13:56:18;31.73;;;20.92;;
5752;SDS011;2901;42.140;24.760;2023-01-16T14:01:54;38.47;;;20.70;;
5752;SDS011;2901;42.140;24.760;2023-01-16T14:06:52;39.95;;;22.92;;
5752;SDS011;2901;42.140;24.760;2023-01-16T14:15:47;49.67;;;22.70;;
5752;SDS011;2901;42.140;24.760;2023-01-16T14:21:24;43.30;;;23.02;;
5752;SDS011;2901;42.140;24.760;2023-01-16T14:23:59;37.23;;;22.80;;
5752;SDS011;2901;42.140;24.760;2023-01-16T14:29:20;35.37;;;18.93;;
5752;SDS011;2901;42.140;24.760;2023-01-16T14:31:56;38.88;;;22.33;;
5752;SDS011;2901;42.140;24.760;2023-01-16T14:34:26;45.53;;;22.23;;
5752;SDS011;2901;42.140;24.760;2023-01-16T14:37:04;41.00;;;22.43;;
5752;SDS011;2901;42.140;24.760;2023-01-16T14:39:37;37.90;;;23.77;;
5752;SDS011;2901;42.140;24.760;2023-01-16T14:42:31;38.28;;;23.40;;
5752;SDS011;2901;42.140;24.760;2023-01-16T14:48:29;41.55;;;21.90;;
5752;SDS011;2901;42.140;24.760;2023-01-16T14:57:35;38.90;;;23.08;;
5752;SDS011;2901;42.140;24.760;2023-01-16T15:00:04;46.43;;;23.30;;
5752;SDS011;2901;42.140;24.760;2023-01-16T15:02:40;38.33;;;23.07;;
5752;SDS011;2901;42.140;24.760;2023-01-16T15:08:14;51.70;;;25.00;;
5752;SDS011;2901;42.140;24.760;2023-01-16T15:10:41;52.40;;;25.57;;
5752;SDS011;2901;42.140;24.760;2023-01-16T15:15:59;54.88;;;25.50;;
5752;SDS011;2901;42.140;24.760;2023-01-16T15:18:26;50.53;;;24.20;;
5752;SDS011;2901;42.140;24.760;2023-01-16T15:21:14;54.37;;;26.07;;
5752;SDS011;2901;42.140;24.760;2023-01-16T15:23:59;36.88;;;22.70;;
5752;SDS011;2901;42.140;24.760;2023-01-16T15:26:28;48.63;;;24.53;;
5752;SDS011;2901;42.140;24.760;2023-01-16T15:31:32;38.93;;;24.20;;
5752;SDS011;2901;42.140;24.760;2023-01-16T15:41:48;47.23;;;25.63;;
5752;SDS011;2901;42.140;24.760;2023-01-16T15:44:38;35.23;;;24.63;;
5752;SDS011;2901;42.140;24.760;2023-01-16T15:50:39;45.47;;;25.97;;
5752;SDS011;2901;42.140;24.760;2023-01-16T15:53:10;42.53;;;25.20;;
5752;SDS011;2901;42.140;24.760;2023-01-16T15:55:37;49.53;;;25.90;;
5752;SDS011;2901;42.140;24.760;2023-01-16T15:58:10;49.97;;;28.10;;
5752;SDS011;2901;42.140;24.760;2023-01-16T16:00:39;52.00;;;26.27;;
5752;SDS011;2901;42.140;24.760;2023-01-16T16:03:13;53.67;;;29.30;;
5752;SDS011;2901;42.140;24.760;2023-01-16T16:05:45;49.50;;;27.87;;
5752;SDS011;2901;42.140;24.760;2023-01-16T16:08:31;68.70;;;35.33;;
5752;SDS011;2901;42.140;24.760;2023-01-16T16:11:01;69.43;;;36.27;;
5752;SDS011;2901;42.140;24.760;2023-01-16T16:13:48;77.03;;;41.73;;
5752;SDS011;2901;42.140;24.760;2023-01-16T16:16:25;77.53;;;42.07;;
5752;SDS011;2901;42.140;24.760;2023-01-16T16:19:29;75.50;;;40.30;;
5752;SDS011;2901;42.140;24.760;2023-01-16T16:21:56;65.37;;;39.33;;
5752;SDS011;2901;42.140;24.760;2023-01-16T16:24:46;73.80;;;38.17;;
5752;SDS011;2901;42.140;24.760;2023-01-16T16:27:12;77.57;;;42.77;;
5752;SDS011;2901;42.140;24.760;2023-01-16T16:29:40;81.70;;;43.13;;
5752;SDS011;2901;42.140;24.760;2023-01-16T16:32:13;81.03;;;41.97;;
5752;SDS011;2901;42.140;24.760;2023-01-16T16:34:49;79.83;;;41.43;;
5752;SDS011;2901;42.140;24.760;2023-01-16T16:37:18;82.60;;;40.40;;
5752;SDS011;2901;42.140;24.760;2023-01-16T16:45:06;91.40;;;42.13;;
5752;SDS011;2901;42.140;24.760;2023-01-16T16:47:43;78.43;;;40.90;;
5752;SDS011;2901;42.140;24.760;2023-01-16T16:53:22;75.43;;;41.53;;
5752;SDS011;2901;42.140;24.760;2023-01-16T16:55:50;80.97;;;43.30;;
5752;SDS011;2901;42.140;24.760;2023-01-16T16:58:22;71.23;;;40.70;;
5752;SDS011;2901;42.140;24.760;2023-01-16T17:00:50;79.80;;;40.57;;
5752;SDS011;2901;42.140;24.760;2023-01-16T17:03:24;93.93;;;45.40;;
5752;SDS011;2901;42.140;24.760;2023-01-16T17:05:51;85.57;;;45.83;;
5752;SDS011;2901;42.140;24.760;2023-01-16T17:08:20;84.65;;;45.50;;
5752;SDS011;2901;42.140;24.760;2023-01-16T17:10:47;67.30;;;41.13;;
5752;SDS011;2901;42.140;24.760;2023-01-16T17:13:19;78.70;;;41.53;;
5752;SDS011;2901;42.140;24.760;2023-01-16T17:15:46;79.43;;;44.33;;
5752;SDS011;2901;42.140;24.760;2023-01-16T17:18:13;75.40;;;40.83;;
5752;SDS011;2901;42.140;24.760;2023-01-16T17:20:39;87.30;;;42.93;;
5752;SDS011;2901;42.140;24.760;2023-01-16T17:23:12;77.13;;;42.93;;
5752;SDS011;2901;42.140;24.760;2023-01-16T17:25:40;81.17;;;45.90;;
5752;SDS011;2901;42.140;24.760;2023-01-16T17:28:07;93.80;;;48.70;;
5752;SDS011;2901;42.140;24.760;2023-01-16T17:30:32;84.73;;;47.30;;
5752;SDS011;2901;42.140;24.760;2023-01-16T17:33:16;76.73;;;43.33;;
5752;SDS011;2901;42.140;24.760;2023-01-16T17:35:45;80.30;;;42.00;;
5752;SDS011;2901;42.140;24.760;2023-01-16T17:38:14;85.27;;;38.83;;
5752;SDS011;2901;42.140;24.760;2023-01-16T17:40:45;73.80;;;39.77;;
5752;SDS011;2901;42.140;24.760;2023-01-16T17:43:14;73.30;;;40.40;;